Time;durP1;ratioP1;P1;durP2;ratioP2;P2;SDS_P1;SDS_P2;PMS_P1;PMS_P2;Temp;Humidity;BMP_temperature;BMP_pressure;BME280_temperature;BME280_humidity;BME280_pressure;Samples;Min_cycle;Max_cycle;Signal;HPM_P1;HPM_P2
2022/06/15 00:00:55;;;;;;;1.80;1.50;;;11.60;99.90;;;;;;7414081;19;20333;-86
2022/06/15 00:03:21;;;;;;;1.30;1.20;;;11.80;99.90;;;;;;7414723;19;20745;-87
2022/06/15 00:05:46;;;;;;;2.75;1.42;;;11.60;99.90;;;;;;7412826;19;20312;-87
2022/06/15 00:08:12;;;;;;;1.60;1.25;;;11.50;99.90;;;;;;7414756;19;20350;-86
2022/06/15 00:10:39;;;;;;;1.80;1.40;;;11.50;99.90;;;;;;7413899;19;20318;-83
2022/06/15 00:13:06;;;;;;;1.50;1.40;;;11.50;99.90;;;;;;7413604;19;20650;-88
2022/06/15 00:15:32;;;;;;;1.20;1.10;;;11.40;99.90;;;;;;7411446;19;20753;-88
2022/06/15 00:17:58;;;;;;;1.30;1.20;;;11.40;99.90;;;;;;7413803;19;20325;-87
2022/06/15 00:20:23;;;;;;;1.13;1.10;;;11.40;99.90;;;;;;7410859;19;20325;-89
2022/06/15 00:22:49;;;;;;;1.40;1.20;;;11.40;99.90;;;;;;7414642;19;20380;-87
2022/06/15 00:25:15;;;;;;;1.30;1.20;;;11.30;99.90;;;;;;7413980;19;20329;-87
2022/06/15 00:27:40;;;;;;;1.20;1.10;;;11.30;99.90;;;;;;7414662;19;20317;-87
2022/06/15 00:30:07;;;;;;;1.10;1.10;;;11.30;99.90;;;;;;7412555;19;20309;-88
2022/06/15 00:32:32;;;;;;;1.73;1.10;;;11.20;99.90;;;;;;7413662;19;20334;-85
2022/06/15 00:34:58;;;;;;;1.20;1.10;;;11.20;99.90;;;;;;7412694;19;20317;-88
2022/06/15 00:37:24;;;;;;;1.23;1.20;;;11.20;99.90;;;;;;7413980;19;20355;-89
2022/06/15 00:39:49;;;;;;;1.38;1.10;;;11.10;99.90;;;;;;7413216;19;20324;-88
2022/06/15 00:42:15;;;;;;;1.50;1.40;;;11.10;99.90;;;;;;7412075;19;20305;-85
2022/06/15 00:44:44;;;;;;;1.10;1.10;;;11.00;99.90;;;;;;7414437;19;20356;-87
2022/06/15 00:47:21;;;;;;;2.20;1.50;;;10.90;99.90;;;;;;7414448;19;20329;-86
2022/06/15 00:50:03;;;;;;;1.50;1.40;;;10.90;99.90;;;;;;7310968;19;2004415;-85
2022/06/15 00:52:42;;;;;;;2.08;1.20;;;10.80;99.90;;;;;;7414155;19;20336;-86
2022/06/15 00:55:15;;;;;;;1.38;1.23;;;10.80;99.90;;;;;;7415733;19;20329;-87
2022/06/15 00:57:41;;;;;;;1.80;1.30;;;10.70;99.90;;;;;;7415726;19;20289;-86
2022/06/15 01:00:08;;;;;;;1.30;1.20;;;10.90;99.90;;;;;;7411018;19;20301;-86
2022/06/15 01:02:35;;;;;;;1.35;1.25;;;10.70;99.90;;;;;;7411414;19;20304;-88
2022/06/15 01:05:05;;;;;;;1.80;1.55;;;10.60;99.90;;;;;;7420351;19;20740;-89
2022/06/15 01:08:07;;;;;;;1.42;1.33;;;10.60;99.90;;;;;;7420690;19;20408;-88
2022/06/15 01:10:56;;;;;;;1.20;1.15;;;10.50;99.90;;;;;;7316605;19;2003954;-89
2022/06/15 01:13:57;;;;;;;1.73;1.20;;;10.40;99.90;;;;;;7318220;19;2004293;-87
2022/06/15 01:16:47;;;;;;;1.83;1.48;;;10.40;99.90;;;;;;7315490;19;2004105;-87
2022/06/15 01:19:59;;;;;;;1.40;1.30;;;10.40;99.90;;;;;;7420860;19;20353;-86
2022/06/15 01:23:03;;;;;;;1.42;1.33;;;10.40;99.90;;;;;;7212841;19;2004157;-89
2022/06/15 01:25:34;;;;;;;1.73;1.23;;;10.40;99.90;;;;;;7366607;19;20365;-86
2022/06/15 01:28:00;;;;;;;1.27;1.17;;;10.40;99.90;;;;;;7422146;19;20313;-88
2022/06/15 01:30:44;;;;;;;1.30;1.20;;;10.40;99.90;;;;;;7418566;19;20335;-87
2022/06/15 01:33:20;;;;;;;1.20;1.20;;;10.40;99.90;;;;;;7419546;19;20337;-88
2022/06/15 01:35:49;;;;;;;1.88;1.52;;;10.40;99.90;;;;;;7314076;19;2004350;-86
2022/06/15 01:38:49;;;;;;;1.42;1.33;;;10.40;99.90;;;;;;7419408;19;20345;-87
2022/06/15 01:41:41;;;;;;;3.28;1.65;;;10.30;99.90;;;;;;7314712;19;2004013;-88
2022/06/15 01:44:39;;;;;;;1.50;1.40;;;10.30;99.90;;;;;;7420535;19;20316;-88
2022/06/15 01:47:09;;;;;;;1.50;1.40;;;10.20;99.90;;;;;;7317242;19;2004188;-84
2022/06/15 01:49:41;;;;;;;2.42;1.40;;;10.20;99.90;;;;;;7422292;19;20341;-87
2022/06/15 01:52:08;;;;;;;1.42;1.30;;;10.10;99.90;;;;;;7420326;19;20325;-87
2022/06/15 01:54:45;;;;;;;2.28;1.50;;;10.10;99.90;;;;;;7419353;19;20311;-86
2022/06/15 01:57:11;;;;;;;3.85;1.60;;;9.90;99.90;;;;;;7416660;19;20315;-84
2022/06/15 02:00:03;;;;;;;1.30;1.13;;;10.00;99.90;;;;;;7413625;19;20301;-88
2022/06/15 02:02:47;;;;;;;1.45;1.33;;;10.00;99.90;;;;;;7315493;19;2004101;-85
2022/06/15 02:05:21;;;;;;;1.60;1.48;;;10.00;99.90;;;;;;7417513;19;20353;-86
2022/06/15 02:08:24;;;;;;;1.60;1.40;;;10.00;99.90;;;;;;7315933;19;2003979;-85
2022/06/15 02:11:02;;;;;;;1.50;1.40;;;10.00;99.90;;;;;;7312839;19;2004159;-88
2022/06/15 02:13:59;;;;;;;1.55;1.45;;;9.90;99.90;;;;;;7420510;19;20351;-84
2022/06/15 02:16:40;;;;;;;2.88;1.83;;;9.90;99.90;;;;;;7317037;19;2004315;-86
2022/06/15 02:19:11;;;;;;;3.58;1.67;;;9.80;99.90;;;;;;7392752;19;20370;-79
2022/06/15 02:21:39;;;;;;;1.48;1.38;;;9.80;99.90;;;;;;7380837;19;20304;-78
2022/06/15 02:24:05;;;;;;;1.65;1.40;;;9.80;99.90;;;;;;7383175;19;20567;-80
2022/06/15 02:26:33;;;;;;;2.97;1.77;;;9.70;99.90;;;;;;7388761;19;20333;-81
2022/06/15 02:29:14;;;;;;;1.83;1.60;;;9.70;99.90;;;;;;7387228;19;20320;-79
2022/06/15 02:31:44;;;;;;;2.10;1.20;;;9.70;99.90;;;;;;7278593;19;2004199;-80
2022/06/15 02:34:11;;;;;;;3.63;1.50;;;9.80;99.90;;;;;;7383744;19;21012;-79
2022/06/15 02:36:40;;;;;;;2.20;1.50;;;9.60;99.90;;;;;;7383321;19;20303;-79
2022/06/15 02:39:07;;;;;;;1.50;1.40;;;9.60;99.90;;;;;;7381726;19;20396;-79
2022/06/15 02:41:33;;;;;;;1.88;1.60;;;9.50;99.90;;;;;;7380928;19;20343;-79
2022/06/15 02:44:03;;;;;;;2.80;1.80;;;9.60;99.90;;;;;;7381951;19;20313;-79
2022/06/15 02:46:36;;;;;;;1.63;1.50;;;9.50;99.90;;;;;;7381294;19;20872;-79
2022/06/15 02:49:03;;;;;;;1.60;1.45;;;9.50;99.90;;;;;;7388259;19;20446;-82
2022/06/15 02:51:40;;;;;;;1.77;1.67;;;9.50;99.90;;;;;;7382565;19;20336;-80
2022/06/15 02:54:11;;;;;;;1.80;1.70;;;9.40;99.90;;;;;;7388495;19;20349;-79
2022/06/15 02:56:38;;;;;;;1.30;1.30;;;9.40;99.90;;;;;;7388929;19;20435;-79
2022/06/15 02:59:06;;;;;;;1.40;1.30;;;9.40;99.90;;;;;;7389625;19;20365;-79
2022/06/15 03:01:37;;;;;;;2.08;1.55;;;9.50;99.90;;;;;;7381482;19;20872;-81
2022/06/15 03:04:03;;;;;;;2.03;1.58;;;9.40;99.90;;;;;;7390925;19;20412;-80
2022/06/15 03:06:30;;;;;;;1.90;1.73;;;9.40;99.90;;;;;;7394136;19;20329;-79
2022/06/15 03:08:59;;;;;;;2.10;1.80;;;9.40;99.90;;;;;;7396287;19;20340;-80
2022/06/15 03:11:32;;;;;;;2.88;1.85;;;9.40;99.90;;;;;;7390450;19;20340;-79
2022/06/15 03:14:04;;;;;;;1.70;1.60;;;9.40;99.90;;;;;;7388971;19;20349;-79
2022/06/15 03:16:32;;;;;;;1.65;1.55;;;9.40;99.90;;;;;;7386186;19;20401;-79
2022/06/15 03:18:57;;;;;;;2.45;1.92;;;9.50;99.90;;;;;;7385324;19;20388;-80
2022/06/15 03:21:24;;;;;;;1.88;1.70;;;9.40;99.90;;;;;;7380702;19;20320;-79
2022/06/15 03:23:50;;;;;;;2.00;1.80;;;9.40;99.90;;;;;;7379557;19;20339;-79
2022/06/15 03:26:17;;;;;;;2.28;1.90;;;9.40;99.90;;;;;;7378700;19;20316;-79
2022/06/15 03:28:43;;;;;;;2.45;2.20;;;9.50;99.90;;;;;;7380741;19;20316;-79
2022/06/15 03:31:12;;;;;;;1.95;1.75;;;9.50;99.90;;;;;;7377193;19;20308;-79
2022/06/15 03:33:44;;;;;;;2.25;1.75;;;9.50;99.90;;;;;;7378798;19;20316;-79
2022/06/15 03:36:14;;;;;;;2.50;1.95;;;9.60;99.90;;;;;;7372996;19;20309;-81
2022/06/15 03:38:40;;;;;;;1.60;1.50;;;9.70;99.90;;;;;;7383984;19;20372;-80
2022/06/15 03:41:19;;;;;;;1.60;1.50;;;9.80;99.90;;;;;;7284287;19;2005042;-82
2022/06/15 03:43:47;;;;;;;1.95;1.85;;;9.80;99.90;;;;;;7389709;19;20301;-82
2022/06/15 03:46:14;;;;;;;1.83;1.63;;;9.90;99.90;;;;;;7399333;19;20304;-79
2022/06/15 03:48:41;;;;;;;2.13;1.80;;;9.90;99.90;;;;;;7398401;19;20319;-80
2022/06/15 03:51:07;;;;;;;2.60;1.85;;;9.90;99.90;;;;;;7381323;19;20308;-79
2022/06/15 03:53:42;;;;;;;2.00;1.80;;;10.10;99.90;;;;;;7379761;19;20309;-81
2022/06/15 03:56:08;;;;;;;3.67;1.87;;;10.10;99.90;;;;;;7382710;19;20320;-81
2022/06/15 03:58:35;;;;;;;1.80;1.70;;;10.10;99.90;;;;;;7382084;19;20428;-81
2022/06/15 04:01:02;;;;;;;1.95;1.85;;;10.10;99.90;;;;;;7382389;19;20312;-81
2022/06/15 04:03:31;;;;;;;1.92;1.73;;;10.20;99.90;;;;;;7386458;19;20332;-82
2022/06/15 04:06:00;;;;;;;4.15;2.20;;;10.30;99.90;;;;;;7389901;19;20341;-81
2022/06/15 04:08:46;;;;;;;3.50;2.85;;;10.30;99.90;;;;;;7384764;19;20841;-78
2022/06/15 04:14:30;;;;;;;3.00;2.70;;;10.60;99.90;;;;;;7284019;19;2004398;-83
2022/06/15 04:17:08;;;;;;;1.92;1.83;;;10.70;99.90;;;;;;7393565;19;20316;-82
2022/06/15 04:22:39;;;;;;;2.53;1.93;;;10.90;99.90;;;;;;7390459;19;20356;-84
2022/06/15 04:25:05;;;;;;;2.47;1.70;;;11.00;99.90;;;;;;7390137;19;20370;-82
2022/06/15 04:27:32;;;;;;;2.85;2.03;;;11.00;99.90;;;;;;7396676;19;20356;-82
2022/06/15 04:29:59;;;;;;;2.10;1.88;;;11.10;99.90;;;;;;7388677;19;20325;-80
2022/06/15 04:32:25;;;;;;;3.90;2.00;;;11.20;99.90;;;;;;7387687;19;20368;-82
2022/06/15 04:34:53;;;;;;;1.63;1.52;;;11.30;99.90;;;;;;7386776;19;20337;-80
2022/06/15 04:37:20;;;;;;;1.92;1.83;;;11.40;99.90;;;;;;7385128;19;20694;-81
2022/06/15 04:39:50;;;;;;;1.70;1.60;;;11.40;99.90;;;;;;7382735;19;20343;-81
2022/06/15 04:42:16;;;;;;;2.75;1.90;;;11.50;99.90;;;;;;7380945;19;20372;-81
2022/06/15 04:44:41;;;;;;;3.20;1.90;;;11.60;99.90;;;;;;7390623;19;20313;-85
2022/06/15 04:47:09;;;;;;;3.57;2.00;;;11.70;99.90;;;;;;7396377;19;20332;-81
2022/06/15 04:49:35;;;;;;;1.50;1.40;;;11.70;99.90;;;;;;7393976;19;20345;-80
2022/06/15 04:52:00;;;;;;;2.87;2.20;;;11.80;99.90;;;;;;7386064;19;20335;-81
2022/06/15 04:54:26;;;;;;;4.20;1.88;;;11.80;99.90;;;;;;7390059;19;20372;-81
2022/06/15 04:56:56;;;;;;;2.05;1.88;;;11.90;99.90;;;;;;7387866;19;20330;-82
2022/06/15 04:59:22;;;;;;;2.30;1.87;;;11.90;99.90;;;;;;7385049;19;20769;-81
2022/06/15 05:01:50;;;;;;;2.45;1.90;;;12.00;99.90;;;;;;7384860;19;20333;-81
2022/06/15 05:04:18;;;;;;;3.47;2.17;;;12.20;99.90;;;;;;7380794;19;20321;-80
2022/06/15 05:06:43;;;;;;;1.87;1.77;;;12.20;99.90;;;;;;7382388;19;20316;-79
2022/06/15 05:09:12;;;;;;;2.90;1.93;;;12.30;99.90;;;;;;7386547;19;20304;-82
2022/06/15 05:11:37;;;;;;;2.30;1.90;;;12.40;99.90;;;;;;7383307;19;20342;-80
2022/06/15 05:14:03;;;;;;;3.35;2.25;;;12.60;99.90;;;;;;7381611;19;20369;-80
2022/06/15 05:16:32;;;;;;;2.90;2.03;;;12.60;99.90;;;;;;7379169;19;20873;-79
2022/06/15 05:18:59;;;;;;;3.85;2.15;;;12.80;99.90;;;;;;7379840;19;20320;-80
2022/06/15 05:21:27;;;;;;;5.20;2.38;;;12.90;99.90;;;;;;7376282;19;20730;-79
2022/06/15 05:23:53;;;;;;;2.28;2.08;;;13.20;99.90;;;;;;7380091;19;20311;-79
2022/06/15 05:26:46;;;;;;;1.73;1.50;;;13.40;99.90;;;;;;7381492;19;20308;-79
2022/06/15 05:29:12;;;;;;;3.00;1.85;;;13.60;99.90;;;;;;7381183;19;20643;-79
2022/06/15 05:31:38;;;;;;;4.72;1.85;;;13.90;99.90;;;;;;7376744;19;20412;-81
2022/06/15 05:34:05;;;;;;;2.87;1.80;;;14.00;99.90;;;;;;7383666;19;21040;-80
2022/06/15 05:36:33;;;;;;;3.13;1.95;;;14.20;99.90;;;;;;7382921;19;20344;-80
2022/06/15 05:39:05;;;;;;;4.75;2.20;;;14.30;99.90;;;;;;7386630;19;20353;-82
2022/06/15 05:41:34;;;;;;;1.77;1.63;;;14.60;99.90;;;;;;7377541;19;20325;-78
2022/06/15 05:44:08;;;;;;;5.87;2.00;;;14.80;99.90;;;;;;7380660;19;20312;-79
2022/06/15 05:46:39;;;;;;;4.10;2.30;;;15.10;99.90;;;;;;7382778;19;20313;-80
2022/06/15 05:49:22;;;;;;;3.38;2.20;;;15.30;99.90;;;;;;7279801;19;2004396;-78
2022/06/15 05:51:47;;;;;;;4.40;2.10;;;15.50;99.90;;;;;;7387714;19;20836;-81
2022/06/15 05:54:13;;;;;;;2.30;1.80;;;15.60;99.90;;;;;;7393766;19;20317;-80
2022/06/15 05:56:39;;;;;;;2.60;1.90;;;15.90;99.90;;;;;;7394873;19;20664;-82
2022/06/15 05:59:04;;;;;;;2.13;1.58;;;16.10;99.90;;;;;;7398481;19;20327;-82
2022/06/15 06:01:31;;;;;;;2.17;1.60;;;16.20;99.90;;;;;;7396244;19;21015;-85
2022/06/15 06:03:57;;;;;;;1.88;1.65;;;16.40;99.90;;;;;;7397959;19;20373;-83
2022/06/15 06:06:23;;;;;;;1.52;1.40;;;16.60;99.90;;;;;;7396249;19;20313;-77
2022/06/15 06:08:49;;;;;;;2.80;1.57;;;16.90;99.90;;;;;;7389976;19;20327;-76
2022/06/15 06:11:15;;;;;;;2.10;1.67;;;17.20;99.90;;;;;;7390156;19;20373;-77
2022/06/15 06:13:41;;;;;;;1.60;1.47;;;17.40;99.90;;;;;;7386056;19;21295;-77
2022/06/15 06:16:07;;;;;;;1.67;1.50;;;17.60;99.90;;;;;;7381910;19;20340;-77
2022/06/15 06:18:33;;;;;;;3.08;1.77;;;17.70;99.90;;;;;;7385589;19;20356;-78
2022/06/15 06:20:58;;;;;;;2.37;1.30;;;17.90;99.90;;;;;;7387071;19;20334;-78
2022/06/15 06:23:24;;;;;;;1.50;1.40;;;18.10;99.90;;;;;;7385297;19;20333;-78
2022/06/15 06:25:51;;;;;;;1.47;1.30;;;18.30;99.90;;;;;;7388006;19;20320;-79
2022/06/15 06:28:29;;;;;;;1.50;1.30;;;18.40;99.90;;;;;;7388829;19;20339;-77
2022/06/15 06:30:57;;;;;;;1.48;1.35;;;18.80;99.90;;;;;;7289951;19;2004302;-78
2022/06/15 06:33:25;;;;;;;2.43;1.60;;;19.00;99.90;;;;;;7384583;19;20320;-79
2022/06/15 06:35:51;;;;;;;2.60;1.60;;;19.10;99.90;;;;;;7385771;19;20304;-90
2022/06/15 06:38:17;;;;;;;1.50;1.30;;;19.30;99.90;;;;;;7389257;19;20336;-86
2022/06/15 06:40:42;;;;;;;1.23;1.13;;;19.50;99.90;;;;;;7385955;19;20312;-84
2022/06/15 06:43:08;;;;;;;2.35;1.60;;;19.70;99.90;;;;;;7386680;19;20369;-82
2022/06/15 06:45:34;;;;;;;1.65;1.20;;;19.60;99.90;;;;;;7391518;19;20479;-84
2022/06/15 06:48:00;;;;;;;2.53;1.50;;;19.80;99.90;;;;;;7392454;19;20329;-82
2022/06/15 06:50:27;;;;;;;1.70;1.27;;;19.90;99.90;;;;;;7385587;19;20348;-83
2022/06/15 06:52:53;;;;;;;1.55;1.10;;;20.00;99.90;;;;;;7390240;19;20326;-82
2022/06/15 06:55:21;;;;;;;3.15;1.40;;;19.90;99.90;;;;;;7397390;19;20341;-88
2022/06/15 06:57:47;;;;;;;0.77;0.77;;;20.20;99.90;;;;;;7395718;19;20320;-83
2022/06/15 07:00:13;;;;;;;1.27;1.10;;;20.40;99.90;;;;;;7391845;19;20336;-86
2022/06/15 07:02:39;;;;;;;2.30;1.40;;;20.70;99.90;;;;;;7395067;19;20349;-83
2022/06/15 07:05:05;;;;;;;1.20;1.10;;;20.80;99.90;;;;;;7392091;19;20370;-86
2022/06/15 07:07:32;;;;;;;1.83;1.15;;;20.90;99.90;;;;;;7392647;19;20349;-87
2022/06/15 07:09:58;;;;;;;1.73;1.13;;;20.90;99.10;;;;;;7390926;19;20321;-86
2022/06/15 07:12:24;;;;;;;1.20;1.10;;;20.90;99.90;;;;;;7399627;19;20297;-82
2022/06/15 07:14:51;;;;;;;1.63;1.40;;;21.20;99.90;;;;;;7398965;19;20308;-82
2022/06/15 07:17:17;;;;;;;4.10;1.70;;;21.50;98.70;;;;;;7392460;19;20327;-83
2022/06/15 07:19:43;;;;;;;1.73;1.48;;;21.00;98.00;;;;;;7387641;19;20346;-82
2022/06/15 07:22:08;;;;;;;2.08;1.45;;;20.90;99.30;;;;;;7388112;19;20339;-82
2022/06/15 07:24:34;;;;;;;1.10;1.00;;;21.20;99.90;;;;;;7390911;19;20341;-87
2022/06/15 07:27:00;;;;;;;2.05;1.33;;;21.60;99.60;;;;;;7392690;19;20344;-88
2022/06/15 07:29:26;;;;;;;2.13;1.30;;;21.90;98.90;;;;;;7389638;19;20976;-84
2022/06/15 07:31:53;;;;;;;1.60;1.40;;;22.30;99.10;;;;;;7385607;19;20323;-82
2022/06/15 07:34:19;;;;;;;2.20;1.13;;;22.40;97.50;;;;;;7387999;19;20328;-81
2022/06/15 07:36:47;;;;;;;2.13;1.60;;;22.70;96.70;;;;;;7384259;19;20305;-86
2022/06/15 07:39:18;;;;;;;2.90;1.60;;;22.70;95.90;;;;;;7386492;19;20325;-81
2022/06/15 07:41:44;;;;;;;1.45;1.30;;;22.60;95.30;;;;;;7385122;19;20313;-82
2022/06/15 07:44:09;;;;;;;2.30;1.60;;;22.70;95.80;;;;;;7384914;19;20892;-83
2022/06/15 07:46:35;;;;;;;1.80;1.33;;;22.90;94.70;;;;;;7385159;19;20361;-82
2022/06/15 07:52:00;;;;;;;1.42;1.20;;;22.90;94.90;;;;;;7386112;19;20676;-84
2022/06/15 07:54:26;;;;;;;1.70;1.40;;;23.00;93.40;;;;;;7287817;19;2004599;-87
2022/06/15 07:56:52;;;;;;;1.75;1.38;;;23.30;93.90;;;;;;7388307;19;20308;-85
2022/06/15 07:59:18;;;;;;;2.25;1.42;;;23.40;92.20;;;;;;7385476;19;20407;-81
2022/06/15 08:01:43;;;;;;;1.80;1.23;;;23.50;92.70;;;;;;7383683;19;20309;-82
2022/06/15 08:04:10;;;;;;;1.40;1.30;;;23.50;91.50;;;;;;7389034;19;20320;-86
2022/06/15 08:06:37;;;;;;;1.75;1.30;;;23.60;91.40;;;;;;7402085;19;20375;-87
2022/06/15 08:09:04;;;;;;;1.65;1.33;;;23.60;90.90;;;;;;7405886;19;21448;-88
2022/06/15 08:11:30;;;;;;;1.40;1.30;;;23.20;88.70;;;;;;7405397;19;20325;-85
2022/06/15 08:13:56;;;;;;;3.40;1.30;;;23.20;91.20;;;;;;7398222;19;20300;-86
2022/06/15 08:16:21;;;;;;;1.20;1.10;;;23.00;89.70;;;;;;7402654;19;20371;-89
2022/06/15 08:18:50;;;;;;;3.45;1.25;;;23.00;87.20;;;;;;7402743;19;20409;-90
2022/06/15 08:21:21;;;;;;;1.43;1.20;;;23.20;90.40;;;;;;7403334;19;20309;-86
2022/06/15 08:23:47;;;;;;;1.20;1.10;;;23.20;87.40;;;;;;7403392;19;20302;-89
2022/06/15 08:26:15;;;;;;;1.60;1.40;;;23.60;90.70;;;;;;7401887;19;20323;-87
2022/06/15 08:28:42;;;;;;;2.43;1.40;;;24.00;90.10;;;;;;7394881;19;20351;-87
2022/06/15 08:31:07;;;;;;;4.15;1.35;;;24.40;89.40;;;;;;7390529;19;20399;-86
2022/06/15 08:33:33;;;;;;;1.80;1.10;;;24.00;82.70;;;;;;7390850;19;20355;-88
2022/06/15 08:35:59;;;;;;;1.70;1.00;;;24.20;85.80;;;;;;7394921;19;20337;-87
2022/06/15 08:38:25;;;;;;;1.53;1.10;;;24.50;86.60;;;;;;7390784;19;20329;-87
2022/06/15 08:40:57;;;;;;;2.90;1.50;;;25.00;85.90;;;;;;7385899;19;20367;-87
2022/06/15 08:43:31;;;;;;;1.30;1.20;;;25.10;83.40;;;;;;7281777;19;2004194;-83
2022/06/15 08:46:20;;;;;;;2.42;1.40;;;25.00;81.50;;;;;;7380688;19;20351;-85
2022/06/15 08:48:52;;;;;;;1.63;1.50;;;25.20;81.30;;;;;;7382334;19;20400;-87
2022/06/15 08:51:20;;;;;;;3.85;1.75;;;25.10;80.10;;;;;;7384964;19;20308;-87
2022/06/15 08:54:18;;;;;;;1.50;1.33;;;25.20;81.70;;;;;;7384973;19;20312;-84
2022/06/15 08:56:49;;;;;;;1.30;1.20;;;25.30;82.40;;;;;;7283377;19;2004413;-84
2022/06/15 08:59:28;;;;;;;2.65;1.88;;;25.30;80.80;;;;;;7384311;19;20321;-84
2022/06/15 09:02:07;;;;;;;2.40;1.70;;;25.00;80.40;;;;;;7281136;19;2004424;-84
2022/06/15 09:04:32;;;;;;;1.55;1.30;;;25.10;81.20;;;;;;7387740;19;20384;-83
2022/06/15 09:07:36;;;;;;;2.03;1.50;;;25.50;83.50;;;;;;7385624;19;20877;-83
2022/06/15 09:10:39;;;;;;;1.25;1.15;;;26.00;78.60;;;;;;7276498;19;2004938;-83
2022/06/15 09:13:26;;;;;;;1.75;1.40;;;26.60;79.60;;;;;;7281826;19;2004209;-82
2022/06/15 09:16:15;;;;;;;1.73;1.23;;;26.40;75.70;;;;;;7378967;19;20320;-81
2022/06/15 09:18:47;;;;;;;2.25;1.40;;;26.50;78.40;;;;;;7279785;19;2004355;-83
2022/06/15 09:21:17;;;;;;;1.95;1.40;;;26.60;75.70;;;;;;7384438;19;20305;-84
2022/06/15 09:23:52;;;;;;;1.80;1.10;;;26.30;71.10;;;;;;7385320;19;20844;-85
2022/06/15 09:26:27;;;;;;;2.65;1.25;;;25.80;68.80;;;;;;7390832;19;20329;-84
2022/06/15 09:28:52;;;;;;;2.08;1.40;;;25.90;75.60;;;;;;7389938;19;20301;-85
2022/06/15 09:31:44;;;;;;;2.53;1.63;;;26.30;75.70;;;;;;7390113;19;20312;-84
2022/06/15 09:34:13;;;;;;;2.45;1.30;;;26.60;70.40;;;;;;7287675;19;2004368;-88
2022/06/15 09:36:46;;;;;;;1.50;1.30;;;26.70;72.40;;;;;;7394643;19;20654;-82
2022/06/15 09:39:12;;;;;;;4.82;1.25;;;27.00;72.40;;;;;;7396195;19;20320;-81
2022/06/15 09:42:02;;;;;;;2.47;1.25;;;27.10;71.10;;;;;;7392374;19;20330;-81
2022/06/15 09:44:54;;;;;;;1.85;1.40;;;27.40;69.60;;;;;;7293071;19;2004533;-81
2022/06/15 09:47:51;;;;;;;1.80;1.00;;;27.40;67.80;;;;;;7397553;19;20320;-81
2022/06/15 09:50:23;;;;;;;1.48;1.38;;;28.00;65.60;;;;;;7291689;19;2003909;-81
2022/06/15 09:53:10;;;;;;;1.60;1.10;;;28.10;61.00;;;;;;7406642;19;20309;-82
2022/06/15 09:55:44;;;;;;;2.05;1.38;;;27.80;60.20;;;;;;7295689;19;2004429;-82
2022/06/15 09:58:20;;;;;;;2.58;1.20;;;27.70;61.70;;;;;;7396620;19;20324;-82
2022/06/15 10:01:41;;;;;;;1.80;1.00;;;27.20;62.70;;;;;;7400770;19;20333;-83
2022/06/15 10:05:03;;;;;;;1.10;1.03;;;28.20;69.40;;;;;;7399728;19;20869;-80
2022/06/15 10:11:11;;;;;;;0.90;0.90;;;30.10;62.90;;;;;;7404627;19;20876;-82
2022/06/15 10:17:23;;;;;;;1.83;0.98;;;30.40;58.50;;;;;;7416577;19;20390;-82
2022/06/15 10:20:19;;;;;;;1.58;1.10;;;30.40;58.50;;;;;;7409931;19;20969;-76
2022/06/15 10:22:45;;;;;;;1.60;1.17;;;30.20;55.70;;;;;;7378456;19;20340;-75
2022/06/15 10:25:16;;;;;;;1.50;1.00;;;30.10;53.50;;;;;;7376490;19;20919;-76
2022/06/15 10:27:42;;;;;;;2.10;1.10;;;30.30;55.00;;;;;;7373711;19;20389;-75
2022/06/15 10:30:07;;;;;;;1.00;1.00;;;30.30;54.60;;;;;;7373171;19;20340;-75
2022/06/15 10:32:33;;;;;;;1.70;1.20;;;29.80;53.70;;;;;;7378064;19;21139;-74
2022/06/15 10:35:07;;;;;;;1.73;1.10;;;30.00;53.10;;;;;;7374974;19;20320;-75
2022/06/15 10:37:42;;;;;;;2.22;1.35;;;30.00;53.00;;;;;;7371953;19;20341;-75
2022/06/15 10:40:22;;;;;;;1.85;1.10;;;29.00;50.30;;;;;;7375607;19;20345;-74
2022/06/15 10:42:54;;;;;;;1.58;1.13;;;29.30;53.30;;;;;;7378517;19;20337;-75
2022/06/15 10:45:30;;;;;;;1.50;1.40;;;30.40;55.20;;;;;;7378514;19;20336;-75
2022/06/15 10:48:14;;;;;;;1.30;1.20;;;31.20;51.70;;;;;;7273364;19;2004406;-75
2022/06/15 10:50:43;;;;;;;1.10;1.10;;;31.20;50.40;;;;;;7373311;19;20359;-75
2022/06/15 10:53:39;;;;;;;1.10;1.00;;;31.20;52.30;;;;;;7377963;19;20444;-75
2022/06/15 11:04:45;;;;;;;1.27;1.13;;;30.80;44.20;;;;;;7275856;19;2004385;-75
2022/06/15 11:07:16;;;;;;;1.58;1.17;;;31.50;48.90;;;;;;7373176;19;20374;-76
2022/06/15 11:09:44;;;;;;;1.33;1.23;;;31.80;47.10;;;;;;7377067;19;20373;-76
2022/06/15 11:12:29;;;;;;;1.20;1.10;;;32.50;47.90;;;;;;7372399;19;20994;-76
2022/06/15 11:14:57;;;;;;;1.52;1.13;;;31.90;46.10;;;;;;7378175;19;20332;-75
2022/06/15 11:20:19;;;;;;;3.92;1.42;;;32.40;46.50;;;;;;7272537;19;2005995;-75
2022/06/15 11:22:47;;;;;;;1.60;1.30;;;32.70;45.50;;;;;;7377969;19;20894;-75
2022/06/15 11:25:14;;;;;;;3.00;1.70;;;33.10;46.10;;;;;;7376230;19;20328;-75
2022/06/15 11:27:42;;;;;;;1.40;1.30;;;33.20;42.60;;;;;;7374799;19;20337;-75
2022/06/15 11:30:27;;;;;;;1.60;1.40;;;33.10;46.50;;;;;;7373042;19;20329;-75
2022/06/15 11:33:12;;;;;;;2.17;1.27;;;33.10;42.50;;;;;;7377619;19;20341;-75
2022/06/15 11:35:44;;;;;;;3.35;1.20;;;33.10;41.40;;;;;;7269048;19;2004321;-76
2022/06/15 11:38:34;;;;;;;1.80;1.38;;;33.40;41.30;;;;;;7374961;19;20340;-76
2022/06/15 11:41:16;;;;;;;1.80;1.17;;;33.30;43.20;;;;;;7271258;19;2014773;-75
2022/06/15 11:43:44;;;;;;;1.30;1.20;;;33.50;41.80;;;;;;7376487;19;20348;-77
2022/06/15 11:46:29;;;;;;;1.87;1.20;;;32.70;41.10;;;;;;7370362;19;20412;-78
2022/06/15 11:49:22;;;;;;;1.17;1.10;;;31.50;43.50;;;;;;7373552;19;20316;-77
2022/06/15 11:52:23;;;;;;;1.70;1.13;;;32.20;44.00;;;;;;7272596;19;2004334;-77
2022/06/15 11:55:07;;;;;;;1.77;1.13;;;32.30;41.60;;;;;;7273271;19;2004613;-77
2022/06/15 11:57:54;;;;;;;1.30;1.20;;;32.90;41.50;;;;;;7266114;19;2005704;-76
2022/06/15 12:00:48;;;;;;;1.45;1.20;;;33.10;42.00;;;;;;7372267;19;20312;-76
2022/06/15 12:03:50;;;;;;;1.70;1.30;;;33.50;43.10;;;;;;7272733;19;2019856;-76
2022/06/15 12:06:37;;;;;;;1.30;1.20;;;33.10;42.50;;;;;;7269052;19;2004125;-75
2022/06/15 12:09:22;;;;;;;1.75;1.20;;;33.10;41.00;;;;;;7271202;19;2004203;-76
2022/06/15 12:15:12;;;;;;;1.92;1.10;;;33.20;42.00;;;;;;7273394;19;2004482;-76
2022/06/15 12:17:56;;;;;;;2.10;1.20;;;32.90;43.30;;;;;;7269493;19;2027022;-76
2022/06/15 12:20:40;;;;;;;2.33;1.10;;;33.00;44.60;;;;;;7374565;19;20312;-76
2022/06/15 12:23:15;;;;;;;1.17;1.08;;;33.70;41.90;;;;;;7276427;19;2004318;-75
2022/06/15 12:26:02;;;;;;;1.48;1.17;;;34.10;42.70;;;;;;7371086;19;20320;-76
2022/06/15 12:28:38;;;;;;;1.77;1.20;;;32.90;38.90;;;;;;7271559;19;2005017;-76
2022/06/15 12:31:25;;;;;;;1.80;1.10;;;32.00;43.30;;;;;;7373948;19;20344;-76
2022/06/15 12:33:59;;;;;;;1.48;1.38;;;32.40;44.70;;;;;;7376414;19;20441;-75
2022/06/15 12:36:37;;;;;;;1.30;1.15;;;33.10;44.40;;;;;;7369369;19;20312;-76
2022/06/15 12:39:10;;;;;;;1.70;1.15;;;33.30;44.00;;;;;;7268791;19;2019951;-76
2022/06/15 12:44:58;;;;;;;1.30;1.10;;;34.30;41.10;;;;;;7375574;19;20332;-76
2022/06/15 12:47:25;;;;;;;1.20;1.10;;;33.90;40.40;;;;;;7266483;19;2016122;-76
2022/06/15 12:50:13;;;;;;;1.40;1.30;;;34.60;42.30;;;;;;7372244;19;21138;-75
2022/06/15 12:52:53;;;;;;;1.70;1.20;;;34.50;40.40;;;;;;7270291;19;2019823;-75
2022/06/15 12:55:42;;;;;;;1.50;1.30;;;34.20;41.90;;;;;;7371110;19;20361;-75
2022/06/15 12:58:32;;;;;;;1.45;1.33;;;34.20;41.00;;;;;;7270289;19;2016116;-75
2022/06/15 13:01:00;;;;;;;2.30;1.25;;;34.70;42.50;;;;;;7275232;19;2019131;-76
2022/06/15 13:03:36;;;;;;;1.98;1.20;;;35.30;40.40;;;;;;7381859;19;20335;-75
2022/06/15 13:06:18;;;;;;;3.28;1.30;;;35.50;38.50;;;;;;7271927;19;2004532;-76
2022/06/15 13:08:45;;;;;;;2.42;1.23;;;35.80;40.40;;;;;;7377648;19;20352;-75
2022/06/15 13:11:13;;;;;;;1.33;1.20;;;35.70;40.10;;;;;;7382911;19;20752;-76
2022/06/15 13:13:50;;;;;;;1.38;1.20;;;35.60;38.30;;;;;;7380843;19;20316;-76
2022/06/15 13:16:38;;;;;;;5.05;1.40;;;35.50;39.10;;;;;;7375530;19;20381;-76
2022/06/15 13:19:05;;;;;;;1.13;1.10;;;35.60;39.00;;;;;;7276611;19;2004302;-74
2022/06/15 13:21:54;;;;;;;2.00;1.10;;;35.90;39.30;;;;;;7381397;19;20366;-76
2022/06/15 13:24:20;;;;;;;1.37;1.20;;;36.30;39.50;;;;;;7381415;19;20391;-75
2022/06/15 13:27:00;;;;;;;1.10;1.10;;;36.10;38.20;;;;;;7374699;19;20411;-74
2022/06/15 13:29:29;;;;;;;1.40;1.20;;;35.20;37.70;;;;;;7379135;19;20325;-75
2022/06/15 13:32:00;;;;;;;1.73;1.20;;;35.20;39.40;;;;;;7377941;19;20320;-74
2022/06/15 13:34:34;;;;;;;2.15;1.45;;;35.30;39.10;;;;;;7378921;19;20348;-75
2022/06/15 13:37:15;;;;;;;1.20;1.10;;;35.80;39.70;;;;;;7273516;19;2004388;-75
2022/06/15 13:39:54;;;;;;;1.40;1.10;;;35.80;37.40;;;;;;7379030;19;20336;-74
2022/06/15 13:42:43;;;;;;;1.15;1.10;;;35.80;38.60;;;;;;7380123;19;20312;-74
2022/06/15 13:45:18;;;;;;;1.10;1.00;;;36.10;39.50;;;;;;7277674;19;2005020;-73
2022/06/15 13:47:57;;;;;;;2.45;1.20;;;35.30;37.30;;;;;;7376562;19;20355;-73
2022/06/15 13:50:43;;;;;;;1.33;1.20;;;35.40;39.00;;;;;;7377278;19;20973;-73